createdAt,value
2022-08-08T00:00:56.916Z,22.26
2022-08-08T00:01:07.870Z,22.24
2022-08-08T00:02:31.805Z,22.22
2022-08-08T00:03:36.417Z,22.21
2022-08-08T00:04:53.032Z,22.2
2022-08-08T00:06:07.387Z,22.19
2022-08-08T00:07:13.207Z,22.17
2022-08-08T00:08:17.839Z,22.16
2022-08-08T00:09:22.277Z,22.12
2022-08-08T00:10:29.111Z,22.1
2022-08-08T00:11:46.380Z,22.07
2022-08-08T00:13:01.056Z,22.04
2022-08-08T00:14:35.979Z,22
2022-08-08T00:15:56.200Z,21.98
2022-08-08T00:16:54.919Z,21.99
2022-08-08T00:18:04.940Z,21.98
2022-08-08T00:19:09.128Z,21.97
2022-08-08T00:20:15.054Z,21.95
2022-08-08T00:21:24.723Z,21.92
2022-08-08T00:22:32.368Z,21.9
2022-08-08T00:23:47.351Z,21.87
2022-08-08T00:24:59.579Z,21.84
2022-08-08T00:26:03.932Z,21.82
2022-08-08T00:27:08.405Z,21.81
2022-08-08T00:28:34.785Z,21.79
2022-08-08T00:29:47.022Z,21.77
2022-08-08T00:32:07.770Z,21.74
2022-08-08T00:32:33.796Z,21.74
2022-08-08T00:34:17.770Z,21.74
2022-08-08T00:35:04.634Z,21.75
2022-08-08T00:36:15.061Z,21.76
2022-08-08T00:37:45.484Z,21.76
2022-08-08T00:38:54.722Z,21.74
2022-08-08T00:41:08.567Z,21.73
2022-08-08T00:41:45.011Z,21.72
2022-08-08T00:42:47.892Z,21.73
2022-08-08T00:44:01.361Z,21.72
2022-08-08T00:45:21.173Z,21.7
2022-08-08T00:46:56.255Z,21.68
2022-08-08T00:48:05.612Z,21.67
2022-08-08T00:49:23.139Z,21.66
2022-08-08T00:50:33.842Z,21.65
2022-08-08T00:51:42.645Z,21.64
2022-08-08T00:52:51.969Z,21.62
2022-08-08T00:54:13.914Z,21.6
2022-08-08T00:55:36.380Z,21.55
2022-08-08T00:56:44.995Z,21.55
2022-08-08T00:57:59.030Z,21.53
2022-08-08T00:59:04.836Z,21.52
2022-08-08T01:00:10.915Z,21.5
2022-08-08T01:01:29.531Z,21.49
2022-08-08T01:03:54.010Z,21.46
2022-08-08T01:04:05.564Z,21.42
2022-08-08T01:05:29.017Z,21.4
2022-08-08T01:06:37.852Z,21.4
2022-08-08T01:07:54.200Z,21.39
2022-08-08T01:09:34.728Z,21.4
2022-08-08T01:10:27.249Z,21.38
2022-08-08T01:11:31.929Z,21.37
2022-08-08T01:12:36.366Z,21.36
2022-08-08T01:13:52.562Z,21.35
2022-08-08T01:15:07.159Z,21.34
2022-08-08T01:16:17.245Z,21.32
2022-08-08T01:17:35.128Z,21.32
2022-08-08T01:18:54.859Z,21.32
2022-08-08T01:20:04.628Z,21.33
2022-08-08T01:21:08.867Z,21.33
2022-08-08T01:22:23.967Z,21.33
2022-08-08T01:24:03.534Z,21.33
2022-08-08T01:25:01.590Z,21.32
2022-08-08T01:26:13.354Z,21.3
2022-08-08T01:27:32.900Z,21.29
2022-08-08T01:28:42.226Z,21.28
2022-08-08T01:29:58.972Z,21.26
2022-08-08T01:32:03.159Z,21.23
2022-08-08T01:32:32.389Z,21.21
2022-08-08T01:33:54.549Z,21.19
2022-08-08T01:35:00.927Z,21.17
2022-08-08T01:36:12.311Z,21.16
2022-08-08T01:37:37.241Z,21.15
2022-08-08T01:38:35.923Z,21.12
2022-08-08T01:39:42.534Z,21.11
2022-08-08T01:40:47.715Z,21.08
2022-08-08T01:41:52.738Z,21.05
2022-08-08T01:42:59.451Z,21.02
2022-08-08T01:44:03.799Z,20.98
2022-08-08T01:45:14.138Z,20.94
2022-08-08T01:46:19.878Z,20.91
2022-08-08T01:48:13.749Z,20.89
2022-08-08T01:48:48.480Z,20.87
2022-08-08T01:49:58.975Z,20.86
2022-08-08T01:51:29.922Z,20.85
2022-08-08T01:52:42.381Z,20.86
2022-08-08T01:55:15.317Z,20.87
2022-08-08T01:56:26.468Z,20.89
2022-08-08T01:56:47.279Z,20.92
2022-08-08T01:58:12.358Z,20.93
2022-08-08T01:59:18.156Z,20.93
2022-08-08T02:00:23.738Z,20.93
2022-08-08T02:01:54.854Z,20.92
2022-08-08T02:02:57.213Z,20.92
2022-08-08T02:04:02.046Z,20.93
2022-08-08T02:05:06.501Z,20.92
2022-08-08T02:06:32.028Z,20.9
2022-08-08T02:07:49.748Z,20.88
2022-08-08T02:08:56.342Z,20.86
2022-08-08T02:10:11.266Z,20.85
2022-08-08T02:11:24.019Z,20.83
2022-08-08T02:12:39.872Z,20.82
2022-08-08T02:13:55.471Z,20.82
2022-08-08T02:15:03.206Z,20.82
2022-08-08T02:16:07.975Z,20.81
2022-08-08T02:17:21.998Z,20.79
2022-08-08T02:18:26.472Z,20.76
2022-08-08T02:19:42.035Z,20.73
2022-08-08T02:21:05.479Z,20.69
2022-08-08T02:22:17.554Z,20.68
2022-08-08T02:23:31.567Z,20.67
2022-08-08T02:24:36.831Z,20.66
2022-08-08T02:25:49.045Z,20.67
2022-08-08T02:27:01.312Z,20.64
2022-08-08T02:28:07.950Z,20.64
2022-08-08T02:29:21.079Z,20.62
2022-08-08T02:30:25.821Z,20.6
2022-08-08T02:31:44.050Z,20.58
2022-08-08T02:32:54.080Z,20.58
2022-08-08T02:34:09.660Z,20.56
2022-08-08T02:35:22.610Z,20.56
2022-08-08T02:36:30.082Z,20.56
2022-08-08T02:37:51.779Z,20.58
2022-08-08T02:39:41.425Z,20.56
2022-08-08T02:40:22.588Z,20.55
2022-08-08T02:41:58.203Z,20.55
2022-08-08T02:44:36.257Z,20.56
2022-08-08T02:44:36.434Z,20.54
2022-08-08T02:45:51.310Z,20.55
2022-08-08T02:47:02.647Z,20.56
2022-08-08T02:48:09.242Z,20.55
2022-08-08T02:49:27.722Z,20.54
2022-08-08T02:50:40.171Z,20.53
2022-08-08T02:52:11.547Z,20.52
2022-08-08T02:53:17.986Z,20.49
2022-08-08T02:54:27.995Z,20.48
2022-08-08T02:55:38.974Z,20.47
2022-08-08T02:56:43.140Z,20.46
2022-08-08T02:57:52.430Z,20.45
2022-08-08T02:58:56.650Z,20.43
2022-08-08T03:00:16.116Z,20.41
2022-08-08T03:01:32.627Z,20.39
2022-08-08T03:02:50.814Z,20.37
2022-08-08T03:05:01.859Z,20.39
2022-08-08T03:05:18.940Z,20.4
2022-08-08T03:06:34.741Z,20.4
2022-08-08T03:07:57.787Z,20.39
2022-08-08T03:09:03.335Z,20.4
2022-08-08T03:10:31.468Z,20.39
2022-08-08T03:11:47.615Z,20.36
2022-08-08T03:13:07.582Z,20.37
2022-08-08T03:15:55.673Z,20.36
2022-08-08T03:16:01.996Z,20.37
2022-08-08T03:17:09.524Z,20.37
2022-08-08T03:18:14.067Z,20.37
2022-08-08T03:19:25.221Z,20.36
2022-08-08T03:20:31.032Z,20.36
2022-08-08T03:21:55.047Z,20.32
2022-08-08T03:23:05.120Z,20.27
2022-08-08T03:24:10.750Z,20.26
2022-08-08T03:25:29.339Z,20.24
2022-08-08T03:26:43.652Z,20.22
2022-08-08T03:27:57.330Z,20.2
2022-08-08T03:29:15.981Z,20.17
2022-08-08T03:30:22.612Z,20.17
2022-08-08T03:31:38.018Z,20.15
2022-08-08T03:33:02.516Z,20.13
2022-08-08T03:34:14.660Z,20.13
2022-08-08T03:35:20.216Z,20.14
2022-08-08T03:36:31.226Z,20.15
2022-08-08T03:37:59.198Z,20.12
2022-08-08T03:39:15.420Z,20.12
2022-08-08T03:40:31.979Z,20.11
2022-08-08T03:42:13.732Z,20.1
2022-08-08T03:43:15.550Z,20.1
2022-08-08T03:44:26.228Z,20.1
2022-08-08T03:46:03.746Z,20.09
2022-08-08T03:46:54.904Z,20.08
2022-08-08T03:47:59.259Z,20.05
2022-08-08T03:49:55.159Z,20.03
2022-08-08T03:50:27.706Z,20
2022-08-08T03:51:51.106Z,19.97
2022-08-08T03:52:58.682Z,19.95
2022-08-08T03:54:03.163Z,19.93
2022-08-08T03:55:20.519Z,19.91
2022-08-08T03:56:32.700Z,19.88
2022-08-08T03:58:08.739Z,19.85
2022-08-08T03:59:01.065Z,19.82
2022-08-08T04:00:12.230Z,19.82
2022-08-08T04:01:36.570Z,19.8
2022-08-08T04:02:52.620Z,19.79
2022-08-08T04:04:02.466Z,19.78
2022-08-08T04:05:10.609Z,19.77
2022-08-08T04:06:14.837Z,19.76
2022-08-08T04:07:21.551Z,19.76
2022-08-08T04:08:34.691Z,19.73
2022-08-08T04:09:59.204Z,19.7
2022-08-08T04:11:17.579Z,19.71
2022-08-08T04:12:27.792Z,19.71
2022-08-08T04:14:02.837Z,19.73
2022-08-08T04:14:57.429Z,19.73
2022-08-08T04:16:05.909Z,19.74
2022-08-08T04:17:46.940Z,19.74
2022-08-08T04:18:48.822Z,19.72
2022-08-08T04:19:53.064Z,19.72
2022-08-08T04:20:58.253Z,19.73
2022-08-08T04:22:02.965Z,19.73
2022-08-08T04:23:08.089Z,19.72
2022-08-08T04:24:28.367Z,19.69
2022-08-08T04:25:39.747Z,19.68
2022-08-08T04:26:57.044Z,19.67
2022-08-08T04:28:35.696Z,19.66
2022-08-08T04:29:27.419Z,19.65
2022-08-08T04:30:45.219Z,19.67
2022-08-08T04:32:00.551Z,19.68
2022-08-08T04:33:10.475Z,19.68
2022-08-08T04:34:20.199Z,19.71
2022-08-08T04:35:24.370Z,19.7
2022-08-08T04:36:32.709Z,19.7
2022-08-08T04:37:36.947Z,19.7
2022-08-08T04:38:47.442Z,19.69
2022-08-08T04:40:07.737Z,19.68
2022-08-08T04:41:21.873Z,19.68
2022-08-08T04:42:26.412Z,19.67
2022-08-08T04:43:45.147Z,19.67
2022-08-08T04:44:54.960Z,19.67
2022-08-08T04:45:59.386Z,19.67
2022-08-08T04:47:03.850Z,19.65
2022-08-08T04:48:08.430Z,19.63
2022-08-08T04:49:14.095Z,19.63
2022-08-08T04:50:32.810Z,19.62
2022-08-08T04:51:55.443Z,19.59
2022-08-08T04:53:13.847Z,19.61
2022-08-08T04:54:38.663Z,19.62
2022-08-08T04:55:56.895Z,19.64
2022-08-08T04:57:01.196Z,19.66
2022-08-08T04:58:12.804Z,19.66
2022-08-08T04:59:16.953Z,19.69
2022-08-08T05:00:27.620Z,19.69
2022-08-08T05:01:47.929Z,19.69
2022-08-08T05:02:53.482Z,19.69
2022-08-08T05:04:12.567Z,19.69
2022-08-08T05:05:45.062Z,19.69
2022-08-08T05:06:40.075Z,19.7
2022-08-08T05:07:50.139Z,19.7
2022-08-08T05:08:56.061Z,19.7
2022-08-08T05:10:13.197Z,19.72
2022-08-08T05:11:26.369Z,19.72
2022-08-08T05:12:42.834Z,19.74
2022-08-08T05:14:02.494Z,19.76
2022-08-08T05:15:13.566Z,19.79
2022-08-08T05:16:48.626Z,19.82
2022-08-08T05:17:54.072Z,19.86
2022-08-08T05:18:59.827Z,19.9
2022-08-08T05:20:15.199Z,19.95
2022-08-08T05:21:19.846Z,19.99
2022-08-08T05:22:24.876Z,20.02
2022-08-08T05:23:41.006Z,20.04
2022-08-08T05:24:49.644Z,20.07
2022-08-08T05:26:00.614Z,20.11
2022-08-08T05:27:04.827Z,20.16
2022-08-08T05:28:09.285Z,20.2
2022-08-08T05:29:15.774Z,20.24
2022-08-08T05:30:28.840Z,20.28
2022-08-08T05:32:02.867Z,20.33
2022-08-08T05:32:57.950Z,20.41
2022-08-08T05:34:12.733Z,20.47
2022-08-08T05:35:17.188Z,20.53
2022-08-08T05:36:28.394Z,20.59
2022-08-08T05:37:53.610Z,20.63
2022-08-08T05:38:58.773Z,20.71
2022-08-08T05:40:03.970Z,20.76
2022-08-08T05:41:09.608Z,20.8
2022-08-08T05:42:14.056Z,20.85
2022-08-08T05:43:39.021Z,20.91
2022-08-08T05:44:45.536Z,20.96
2022-08-08T05:46:01.998Z,21.01
2022-08-08T05:47:20.867Z,21.08
2022-08-08T05:48:31.520Z,21.13
2022-08-08T05:49:54.442Z,21.2
2022-08-08T05:51:13.160Z,21.28
2022-08-08T05:52:31.873Z,21.34
2022-08-08T05:53:55.496Z,21.41
2022-08-08T05:55:10.261Z,21.5
2022-08-08T05:56:19.754Z,21.57
2022-08-08T05:57:57.401Z,21.63
2022-08-08T05:59:03.623Z,21.71
2022-08-08T06:00:23.340Z,21.78
2022-08-08T06:01:51.026Z,21.87
2022-08-08T06:02:53.773Z,21.94
2022-08-08T06:03:58.520Z,22
2022-08-08T06:05:24.487Z,22.05
2022-08-08T06:06:35.102Z,22.11
2022-08-08T06:07:46.251Z,22.18
2022-08-08T06:09:42.107Z,22.26
2022-08-08T06:10:24.821Z,22.35
2022-08-08T06:11:29.168Z,22.41
2022-08-08T06:12:33.622Z,22.47
2022-08-08T06:13:49.318Z,22.53
2022-08-08T06:14:58.080Z,22.61
2022-08-08T06:16:03.150Z,22.65
2022-08-08T06:17:07.578Z,22.7
2022-08-08T06:18:21.994Z,22.74
2022-08-08T06:19:27.740Z,22.79
2022-08-08T06:20:40.391Z,22.84
2022-08-08T06:21:56.907Z,22.9
2022-08-08T06:23:02.573Z,22.95
2022-08-08T06:24:23.382Z,23.02
2022-08-08T06:26:36.321Z,23.11
2022-08-08T06:26:56.630Z,23.19
2022-08-08T06:28:02.550Z,23.27
2022-08-08T06:29:27.064Z,23.34
2022-08-08T06:30:30.827Z,23.38
2022-08-08T06:31:52.234Z,23.45
2022-08-08T06:33:02.462Z,23.52
2022-08-08T06:34:26.802Z,23.57
2022-08-08T06:36:05.243Z,23.66
2022-08-08T06:36:54.450Z,23.67
2022-08-08T06:37:58.876Z,23.73
2022-08-08T06:39:07.298Z,23.76
2022-08-08T06:40:17.010Z,23.79
2022-08-08T06:41:21.907Z,23.81
2022-08-08T06:42:28.495Z,23.82
2022-08-08T06:43:35.867Z,23.81
2022-08-08T06:44:42.887Z,23.82
2022-08-08T06:45:48.449Z,23.81
2022-08-08T06:46:52.895Z,23.81
2022-08-08T06:48:04.811Z,23.82
2022-08-08T06:49:14.381Z,23.84
2022-08-08T06:50:31.662Z,23.81
2022-08-08T06:51:52.588Z,23.86
2022-08-08T06:53:14.459Z,23.91
2022-08-08T06:54:24.486Z,23.96
2022-08-08T06:55:41.676Z,24
2022-08-08T06:56:53.051Z,24.03
2022-08-08T06:58:04.787Z,24.06
2022-08-08T06:59:12.753Z,24.1
2022-08-08T07:00:31.820Z,24.1
2022-08-08T07:02:18.573Z,24.11
2022-08-08T07:03:05.449Z,24.17
2022-08-08T07:04:35.388Z,24.16
2022-08-08T07:05:41.644Z,24.2
2022-08-08T07:06:45.929Z,24.2
2022-08-08T07:07:50.354Z,24.18
2022-08-08T07:08:56.230Z,24.17
2022-08-08T07:10:01.265Z,24.18
2022-08-08T07:11:07.921Z,24.19
2022-08-08T07:12:18.191Z,24.21
2022-08-08T07:13:25.658Z,24.2
2022-08-08T07:14:30.678Z,24.22
2022-08-08T07:16:05.534Z,24.23
2022-08-08T07:17:02.830Z,24.25
2022-08-08T07:18:35.295Z,24.32
2022-08-08T07:19:37.966Z,24.36
2022-08-08T07:20:51.808Z,24.41
2022-08-08T07:22:11.785Z,24.43
2022-08-08T07:23:23.939Z,24.49
2022-08-08T07:24:28.201Z,24.51
2022-08-08T07:25:34.922Z,24.54
2022-08-08T07:26:41.948Z,24.56
2022-08-08T07:28:00.891Z,24.56
2022-08-08T07:29:20.146Z,24.6
2022-08-08T07:30:30.907Z,24.64
2022-08-08T07:31:36.805Z,24.65
2022-08-08T07:32:41.586Z,24.65
2022-08-08T07:33:59.288Z,24.67
2022-08-08T07:35:08.873Z,24.69
2022-08-08T07:36:16.129Z,24.7
2022-08-08T07:37:21.325Z,24.72
2022-08-08T07:38:26.605Z,24.72
2022-08-08T07:39:45.371Z,24.73
2022-08-08T07:40:58.724Z,24.75
2022-08-08T07:42:05.700Z,24.77
2022-08-08T07:43:35.396Z,24.82
2022-08-08T07:44:46.060Z,24.86
2022-08-08T07:46:05.004Z,24.89
2022-08-08T07:47:14.087Z,24.96
2022-08-08T07:48:23.778Z,24.97
2022-08-08T07:49:28.106Z,24.99
2022-08-08T07:50:32.608Z,24.98
2022-08-08T07:51:53.401Z,24.97
2022-08-08T07:52:57.996Z,24.94
2022-08-08T07:54:05.184Z,24.95
2022-08-08T07:55:09.443Z,24.95
2022-08-08T07:56:15.518Z,24.93
2022-08-08T07:57:21.354Z,24.93
2022-08-08T07:58:27.123Z,24.9
2022-08-08T07:59:38.138Z,24.92
2022-08-08T08:00:42.544Z,24.92
2022-08-08T08:02:32.722Z,24.9
2022-08-08T08:03:23.705Z,24.93
2022-08-08T08:04:41.167Z,24.95
2022-08-08T08:05:51.708Z,24.99
2022-08-08T08:06:57.821Z,25.01
2022-08-08T08:08:03.427Z,25.03
2022-08-08T08:09:08.599Z,25.04
2022-08-08T08:10:13.417Z,25.05
2022-08-08T08:11:22.458Z,25.05
2022-08-08T08:12:41.516Z,25.04
2022-08-08T08:14:06.560Z,25.04
2022-08-08T08:15:15.155Z,25.08
2022-08-08T08:16:23.530Z,25.1
2022-08-08T08:17:45.037Z,25.12
2022-08-08T08:18:56.895Z,25.17
2022-08-08T08:20:01.482Z,25.19
2022-08-08T08:21:18.881Z,25.21
2022-08-08T08:22:33.922Z,25.23
2022-08-08T08:23:41.471Z,25.26
2022-08-08T08:24:57.323Z,25.28
2022-08-08T08:26:04.108Z,25.3
2022-08-08T08:27:09.714Z,25.3
2022-08-08T08:28:24.366Z,25.31
2022-08-08T08:29:30.532Z,25.3
2022-08-08T08:30:35.176Z,25.31
2022-08-08T08:31:42.506Z,25.33
2022-08-08T08:32:52.366Z,25.31
2022-08-08T08:33:57.372Z,25.32
2022-08-08T08:35:03.814Z,25.31
2022-08-08T08:36:21.679Z,25.32
2022-08-08T08:37:31.650Z,25.33
2022-08-08T08:38:49.162Z,25.34
2022-08-08T08:40:03.145Z,25.36
2022-08-08T08:41:17.787Z,25.39
2022-08-08T08:42:36.738Z,25.4
2022-08-08T08:43:45.309Z,25.42
2022-08-08T08:44:50.289Z,25.44
2022-08-08T08:45:57.927Z,25.45
2022-08-08T08:47:10.535Z,25.43
2022-08-08T08:48:20.090Z,25.45
2022-08-08T08:49:33.650Z,25.45
2022-08-08T08:50:41.251Z,25.45
2022-08-08T08:51:51.976Z,25.46
2022-08-08T08:53:27.097Z,25.47
2022-08-08T08:54:25.770Z,25.49
2022-08-08T08:55:40.084Z,25.52
2022-08-08T08:56:46.478Z,25.55
2022-08-08T08:57:50.828Z,25.55
2022-08-08T08:58:55.277Z,25.55
2022-08-08T09:00:15.495Z,25.55
2022-08-08T09:01:24.049Z,25.56
2022-08-08T09:02:28.587Z,25.56
2022-08-08T09:03:46.152Z,25.57
2022-08-08T09:04:57.582Z,25.59
2022-08-08T09:06:01.915Z,25.6
2022-08-08T09:07:13.562Z,25.61
2022-08-08T09:08:21.337Z,25.6
2022-08-08T09:09:40.086Z,25.61
2022-08-08T09:10:51.342Z,25.62
2022-08-08T09:12:06.431Z,25.63
2022-08-08T09:13:16.820Z,25.63
2022-08-08T09:14:26.162Z,25.64
2022-08-08T09:15:41.708Z,25.66
2022-08-08T09:16:49.483Z,25.68
2022-08-08T09:17:57.641Z,25.69
2022-08-08T09:19:03.757Z,25.7
2022-08-08T09:21:54.991Z,25.72
2022-08-08T09:21:55.550Z,25.7
2022-08-08T09:22:59.295Z,25.76
2022-08-08T09:24:05.397Z,25.78
2022-08-08T09:25:11.205Z,25.8
2022-08-08T09:26:21.729Z,25.79
2022-08-08T09:27:42.316Z,25.79
2022-08-08T09:28:49.925Z,25.78
2022-08-08T09:29:57.597Z,25.79
2022-08-08T09:31:12.430Z,25.79
2022-08-08T09:32:19.706Z,25.8
2022-08-08T09:33:55.053Z,25.79
2022-08-08T09:34:51.309Z,25.81
2022-08-08T09:35:57.135Z,25.83
2022-08-08T09:37:29.338Z,25.83
2022-08-08T09:38:28.726Z,25.85
2022-08-08T09:39:36.901Z,25.85
2022-08-08T09:40:52.605Z,25.87
2022-08-08T09:42:15.274Z,25.89
2022-08-08T09:43:40.566Z,25.94
2022-08-08T09:44:49.507Z,25.97
2022-08-08T09:46:03.846Z,25.99
2022-08-08T09:47:23.360Z,26.01
2022-08-08T09:48:43.330Z,26.03
2022-08-08T09:49:54.914Z,26.07
2022-08-08T09:50:59.512Z,26.07
2022-08-08T09:52:16.276Z,26.07
2022-08-08T09:53:54.434Z,26.07
2022-08-08T09:54:51.590Z,26.1
2022-08-08T09:56:06.812Z,26.12
2022-08-08T09:57:19.385Z,26.14
2022-08-08T09:58:44.802Z,26.16
2022-08-08T10:00:31.196Z,26.18
2022-08-08T10:01:58.812Z,26.2
2022-08-08T10:02:40.478Z,26.23
2022-08-08T10:03:44.789Z,26.23
2022-08-08T10:04:53.006Z,26.22
2022-08-08T10:05:57.563Z,26.19
2022-08-08T10:07:07.899Z,26.17
2022-08-08T10:08:22.629Z,26.16
2022-08-08T10:09:29.256Z,26.15
2022-08-08T10:10:36.986Z,26.14
2022-08-08T10:12:22.692Z,26.14
2022-08-08T10:13:15.128Z,26.16
2022-08-08T10:14:35.259Z,26.16
2022-08-08T10:15:59.601Z,26.18
2022-08-08T10:17:38.869Z,26.23
2022-08-08T10:18:30.898Z,26.29
2022-08-08T10:19:46.365Z,26.31
2022-08-08T10:21:22.549Z,26.33
2022-08-08T10:22:23.990Z,26.35
2022-08-08T10:23:41.514Z,26.36
2022-08-08T10:24:53.064Z,26.38
2022-08-08T10:25:57.864Z,26.38
2022-08-08T10:27:02.316Z,26.37
2022-08-08T10:28:15.405Z,26.35
2022-08-08T10:29:28.282Z,26.33
2022-08-08T10:30:57.604Z,26.33
2022-08-08T10:32:03.577Z,26.34
2022-08-08T10:33:12.449Z,26.36
2022-08-08T10:34:21.695Z,26.36
2022-08-08T10:36:06.695Z,26.35
2022-08-08T10:36:50.543Z,26.36
2022-08-08T10:37:54.942Z,26.36
2022-08-08T10:39:00.709Z,26.35
2022-08-08T10:40:07.975Z,26.33
2022-08-08T10:41:13.662Z,26.32
2022-08-08T10:42:21.095Z,26.31
2022-08-08T10:43:36.534Z,26.29
2022-08-08T10:44:40.804Z,26.3
2022-08-08T10:45:58.632Z,26.3
2022-08-08T10:47:05.242Z,26.3
2022-08-08T10:48:09.583Z,26.31
2022-08-08T10:49:27.018Z,26.33
2022-08-08T10:50:42.750Z,26.35
2022-08-08T10:51:51.775Z,26.35
2022-08-08T10:53:00.296Z,26.37
2022-08-08T10:54:07.456Z,26.38
2022-08-08T10:55:13.584Z,26.4
2022-08-08T10:56:35.317Z,26.39
2022-08-08T10:57:53.104Z,26.4
2022-08-08T10:58:57.600Z,26.41
2022-08-08T11:00:02.131Z,26.43
2022-08-08T11:01:12.846Z,26.44
2022-08-08T11:02:26.699Z,26.43
2022-08-08T11:03:53.015Z,26.45
2022-08-08T11:04:57.055Z,26.47
2022-08-08T11:06:01.507Z,26.49
2022-08-08T11:07:07.509Z,26.5
2022-08-08T11:08:39.114Z,26.5
2022-08-08T11:09:45.295Z,26.52
2022-08-08T11:10:50.583Z,26.52
2022-08-08T11:12:13.014Z,26.53
2022-08-08T11:13:29.224Z,26.54
2022-08-08T11:14:42.242Z,26.57
2022-08-08T11:15:59.062Z,26.61
2022-08-08T11:17:15.915Z,26.62
2022-08-08T11:18:30.539Z,26.64
2022-08-08T11:19:34.907Z,26.65
2022-08-08T11:20:39.403Z,26.65
2022-08-08T11:21:54.064Z,26.64
2022-08-08T11:23:00.729Z,26.64
2022-08-08T11:24:11.405Z,26.63
2022-08-08T11:25:16.711Z,26.64
2022-08-08T11:26:28.346Z,26.63
2022-08-08T11:27:37.669Z,26.63
2022-08-08T11:28:43.045Z,26.62
2022-08-08T11:30:20.800Z,26.63
2022-08-08T11:31:12.723Z,26.63
2022-08-08T11:32:17.287Z,26.64
2022-08-08T11:33:52.173Z,26.63
2022-08-08T11:35:29.745Z,26.64
2022-08-08T11:36:13.690Z,26.66
2022-08-08T11:37:39.689Z,26.67
2022-08-08T11:38:53.879Z,26.7
2022-08-08T11:40:04.006Z,26.73
2022-08-08T11:41:08.376Z,26.75
2022-08-08T11:42:15.498Z,26.75
2022-08-08T11:43:24.617Z,26.74
2022-08-08T11:44:35.142Z,26.74
2022-08-08T11:46:09.423Z,26.74
2022-08-08T11:47:17.104Z,26.75
2022-08-08T11:48:28.106Z,26.76
2022-08-08T11:49:32.366Z,26.78
2022-08-08T11:50:36.977Z,26.78
2022-08-08T11:51:52.488Z,26.76
2022-08-08T11:52:59.156Z,26.76
2022-08-08T11:54:04.673Z,26.76
2022-08-08T11:55:15.768Z,26.76
2022-08-08T11:56:20.130Z,26.75
2022-08-08T11:57:34.906Z,26.74
2022-08-08T11:58:40.232Z,26.74
2022-08-08T11:59:59.014Z,26.73
2022-08-08T12:01:16.588Z,26.74
2022-08-08T12:02:34.057Z,26.75
2022-08-08T12:03:39.091Z,26.77
2022-08-08T12:04:44.673Z,26.78
2022-08-08T12:05:49.699Z,26.79
2022-08-08T12:06:55.535Z,26.79
2022-08-08T12:08:00.000Z,26.78
2022-08-08T12:09:06.315Z,26.77
2022-08-08T12:10:11.368Z,26.77
2022-08-08T12:11:27.259Z,26.75
2022-08-08T12:12:34.022Z,26.75
2022-08-08T12:14:03.274Z,26.75
2022-08-08T12:15:02.354Z,26.76
2022-08-08T12:16:16.383Z,26.78
2022-08-08T12:17:21.643Z,26.79
2022-08-08T12:18:26.019Z,26.81
2022-08-08T12:19:51.433Z,26.8
2022-08-08T12:20:54.803Z,26.83
2022-08-08T12:22:12.898Z,26.83
2022-08-08T12:23:40.608Z,26.86
2022-08-08T12:24:56.722Z,26.88
2022-08-08T12:26:00.901Z,26.91
2022-08-08T12:27:07.739Z,26.95
2022-08-08T12:28:16.294Z,26.95
2022-08-08T12:29:21.809Z,26.95
2022-08-08T12:30:34.932Z,26.94
2022-08-08T12:31:53.448Z,26.93
2022-08-08T12:32:58.671Z,26.94
2022-08-08T12:34:04.808Z,26.94
2022-08-08T12:35:18.798Z,26.95
2022-08-08T12:36:34.527Z,26.95
2022-08-08T12:38:01.740Z,26.98
2022-08-08T12:39:09.134Z,27
2022-08-08T12:40:24.718Z,27.02
2022-08-08T12:41:57.632Z,27.05
2022-08-08T12:42:53.882Z,27.08
2022-08-08T12:44:02.493Z,27.08
2022-08-08T12:45:54.433Z,27.08
2022-08-08T12:46:30.805Z,27.11
2022-08-08T12:47:58.835Z,27.1
2022-08-08T12:49:22.389Z,27.12
2022-08-08T12:50:26.071Z,27.12
2022-08-08T12:51:40.108Z,27.14
2022-08-08T12:52:49.161Z,27.15
2022-08-08T12:53:59.661Z,27.16
2022-08-08T12:55:15.826Z,27.16
2022-08-08T12:56:28.689Z,27.16
2022-08-08T12:57:49.747Z,27.16
2022-08-08T12:58:59.078Z,27.19
2022-08-08T13:00:13.438Z,27.21
2022-08-08T13:01:34.727Z,27.21
2022-08-08T13:02:51.872Z,27.22
2022-08-08T13:04:03.845Z,27.25
2022-08-08T13:05:26.095Z,27.26
2022-08-08T13:06:32.856Z,27.29
2022-08-08T13:08:02.507Z,27.3
2022-08-08T13:09:03.011Z,27.31
2022-08-08T13:10:11.165Z,27.31
2022-08-08T13:11:16.115Z,27.3
2022-08-08T13:12:29.841Z,27.28
2022-08-08T13:13:39.242Z,27.28
2022-08-08T13:14:53.848Z,27.28
2022-08-08T13:15:58.053Z,27.29
2022-08-08T13:17:02.555Z,27.29
2022-08-08T13:18:22.053Z,27.29
2022-08-08T13:19:41.278Z,27.29
2022-08-08T13:20:52.540Z,27.32
2022-08-08T13:22:06.945Z,27.35
2022-08-08T13:23:41.965Z,27.36
2022-08-08T13:24:48.647Z,27.39
2022-08-08T13:26:03.935Z,27.4
2022-08-08T13:27:15.270Z,27.4
2022-08-08T13:28:24.175Z,27.42
2022-08-08T13:29:41.016Z,27.42
2022-08-08T13:30:46.973Z,27.41
2022-08-08T13:31:53.985Z,27.41
2022-08-08T13:32:59.507Z,27.39
2022-08-08T13:34:12.966Z,27.38
2022-08-08T13:35:29.945Z,27.36
2022-08-08T13:36:44.797Z,27.37
2022-08-08T13:38:05.325Z,27.37
2022-08-08T13:39:17.739Z,27.39
2022-08-08T13:40:28.224Z,27.41
2022-08-08T13:41:43.765Z,27.42
2022-08-08T13:42:58.518Z,27.44
2022-08-08T13:44:05.072Z,27.45
2022-08-08T13:45:11.005Z,27.44
2022-08-08T13:46:29.109Z,27.46
2022-08-08T13:47:34.225Z,27.45
2022-08-08T13:48:44.032Z,27.45
2022-08-08T13:50:34.280Z,27.44
2022-08-08T13:51:25.290Z,27.46
2022-08-08T13:52:38.675Z,27.47
2022-08-08T13:53:59.961Z,27.58
2022-08-08T13:55:06.055Z,27.59
2022-08-08T13:56:12.608Z,27.59
2022-08-08T13:57:17.375Z,27.57
2022-08-08T13:58:21.900Z,27.56
2022-08-08T13:59:33.202Z,27.53
2022-08-08T14:00:37.554Z,27.51
2022-08-08T14:01:53.214Z,27.49
2022-08-08T14:03:46.888Z,27.5
2022-08-08T14:04:30.132Z,27.53
2022-08-08T14:05:34.836Z,27.51
2022-08-08T14:06:40.732Z,27.51
2022-08-08T14:07:57.069Z,27.55
2022-08-08T14:09:18.568Z,27.55
2022-08-08T14:10:39.608Z,27.55
2022-08-08T14:11:43.944Z,27.57
2022-08-08T14:12:48.458Z,27.58
2022-08-08T14:14:01.686Z,27.56
2022-08-08T14:15:13.190Z,27.55
2022-08-08T14:16:17.595Z,27.54
2022-08-08T14:17:36.520Z,27.54
2022-08-08T14:18:54.145Z,27.56
2022-08-08T14:20:07.215Z,27.55
2022-08-08T14:21:22.850Z,27.59
2022-08-08T14:22:27.204Z,27.59
2022-08-08T14:24:05.072Z,27.59
2022-08-08T14:24:59.879Z,27.6
2022-08-08T14:26:11.792Z,27.61
2022-08-08T14:27:16.258Z,27.61
2022-08-08T14:28:29.415Z,27.6
2022-08-08T14:29:40.476Z,27.58
2022-08-08T14:30:50.327Z,27.57
2022-08-08T14:32:06.656Z,27.58
2022-08-08T14:33:25.877Z,27.6
2022-08-08T14:34:30.074Z,27.6
2022-08-08T14:35:36.900Z,27.6
2022-08-08T14:36:51.476Z,27.6
2022-08-08T14:38:33.708Z,27.62
2022-08-08T14:39:47.688Z,27.63
2022-08-08T14:40:45.781Z,27.64
2022-08-08T14:41:55.232Z,27.66
2022-08-08T14:43:22.463Z,27.66
2022-08-08T14:44:33.596Z,27.67
2022-08-08T14:46:02.542Z,27.69
2022-08-08T14:47:17.445Z,27.69
2022-08-08T14:48:38.837Z,27.82
2022-08-08T14:50:07.218Z,27.84
2022-08-08T14:51:07.937Z,27.88
2022-08-08T14:52:21.851Z,27.89
2022-08-08T14:53:27.067Z,27.89
2022-08-08T14:54:31.509Z,27.85
2022-08-08T14:55:42.825Z,27.8
2022-08-08T14:56:49.252Z,27.76
2022-08-08T14:58:06.155Z,27.71
2022-08-08T14:59:44.132Z,27.7
2022-08-08T15:00:41.388Z,27.72
2022-08-08T15:01:51.678Z,27.71
2022-08-08T15:03:15.255Z,27.69
2022-08-08T15:04:19.836Z,27.68
2022-08-08T15:05:42.880Z,27.65
2022-08-08T15:06:51.919Z,27.68
2022-08-08T15:08:01.212Z,27.67
2022-08-08T15:09:06.046Z,27.65
2022-08-08T15:10:13.088Z,27.62
2022-08-08T15:11:20.844Z,27.6
2022-08-08T15:12:30.101Z,27.56
2022-08-08T15:13:57.954Z,27.55
2022-08-08T15:14:55.868Z,27.53
2022-08-08T15:16:03.979Z,27.52
2022-08-08T15:17:08.829Z,27.49
2022-08-08T15:18:20.550Z,27.47
2022-08-08T15:19:29.016Z,27.46
2022-08-08T15:20:33.421Z,27.44
2022-08-08T15:21:43.361Z,27.42
2022-08-08T15:22:48.014Z,27.42
2022-08-08T15:23:54.545Z,27.39
2022-08-08T15:25:00.865Z,27.38
2022-08-08T15:26:13.234Z,27.36
2022-08-08T15:27:58.522Z,27.35
2022-08-08T15:28:41.403Z,27.35
2022-08-08T15:29:46.757Z,27.35
2022-08-08T15:30:51.975Z,27.36
2022-08-08T15:32:20.133Z,27.35
2022-08-08T15:33:35.843Z,27.36
2022-08-08T15:34:44.948Z,27.38
2022-08-08T15:35:49.392Z,27.39
2022-08-08T15:36:54.730Z,27.38
2022-08-08T15:37:59.562Z,27.35